Time;durP1;ratioP1;P1;durP2;ratioP2;P2;SDS_P1;SDS_P2;PMS_P1;PMS_P2;Temp;Humidity;BMP_temperature;BMP_pressure;BME280_temperature;BME280_humidity;BME280_pressure;Samples;Min_cycle;Max_cycle;Signal;HPM_P1;HPM_P2
2023/01/06 00:02:46;;;;;;;;;;;;;;;18.14;38.89;102132.97;10632793;27;1251;-59
2023/01/06 00:07:49;;;;;;;;;;;;;;;18.14;38.52;102127.66;10632662;27;1041;-64
2023/01/06 00:12:49;;;;;;;;;;;;;;;18.15;38.49;102140.00;10633178;27;1306;-57
2023/01/06 00:17:50;;;;;;;;;;;;;;;18.13;38.26;102141.91;10632100;27;1901;-60
2023/01/06 00:22:50;;;;;;;;;;;;;;;18.12;38.31;102157.00;10632203;27;1271;-63
2023/01/06 00:27:50;;;;;;;;;;;;;;;18.13;38.15;102139.25;10632479;27;941;-63
2023/01/06 00:32:50;;;;;;;;;;;;;;;18.14;38.05;102146.28;10631274;27;1293;-64
2023/01/06 00:37:50;;;;;;;;;;;;;;;18.13;38.06;102148.06;10630916;27;1972;-63
2023/01/06 00:42:51;;;;;;;;;;;;;;;18.18;37.63;102146.91;10630787;27;1184;-64
2023/01/06 00:47:51;;;;;;;;;;;;;;;18.17;37.74;102145.22;10630666;27;820;-65
2023/01/06 00:52:51;;;;;;;;;;;;;;;18.17;37.63;102138.09;10630983;27;1184;-65
2023/01/06 00:57:52;;;;;;;;;;;;;;;18.18;37.92;102138.94;10630849;27;1968;-65
2023/01/06 01:02:52;;;;;;;;;;;;;;;18.15;37.98;102124.06;10612076;27;1198;-65
2023/01/06 01:07:52;;;;;;;;;;;;;;;18.12;37.96;102135.72;10629840;27;919;-65
2023/01/06 01:12:52;;;;;;;;;;;;;;;18.07;37.96;102129.84;10629442;27;1269;-65
2023/01/06 01:17:53;;;;;;;;;;;;;;;18.10;37.62;102134.97;10629963;27;1897;-63
2023/01/06 01:22:53;;;;;;;;;;;;;;;18.12;37.33;102145.50;10629236;27;1195;-64
2023/01/06 01:27:53;;;;;;;;;;;;;;;18.18;37.34;102146.91;10628988;27;852;-64
2023/01/06 01:32:53;;;;;;;;;;;;;;;18.17;37.51;102159.34;10629300;27;1273;-65
2023/01/06 01:37:53;;;;;;;;;;;;;;;18.13;37.36;102148.06;10628442;27;1907;-64
2023/01/06 01:42:54;;;;;;;;;;;;;;;18.17;37.33;102151.38;10628470;27;1172;-65
2023/01/06 01:48:02;;;;;;;;;;;;;;;18.16;37.51;102160.31;10628762;27;1007;-63
2023/01/06 01:53:11;;;;;;;;;;;;;;;18.18;37.40;102157.56;10628060;27;1293;-64
2023/01/06 01:58:12;;;;;;;;;;;;;;;18.16;37.57;102141.69;10609419;27;1902;-63
2023/01/06 02:03:13;;;;;;;;;;;;;;;18.18;37.36;102162.88;10610913;27;1308;-65
2023/01/06 02:08:17;;;;;;;;;;;;;;;18.14;37.15;102164.88;10628189;27;812;-64
2023/01/06 02:13:18;;;;;;;;;;;;;;;18.15;37.34;102171.06;10609663;27;1278;-64
2023/01/06 02:18:33;;;;;;;;;;;;;;;18.15;37.29;102166.59;10627752;27;1902;-64
2023/01/06 02:23:51;;;;;;;;;;;;;;;18.13;37.20;102172.00;10626496;27;1281;-64
2023/01/06 02:28:58;;;;;;;;;;;;;;;18.13;37.10;102179.97;10626911;27;809;-63
2023/01/06 02:34:08;;;;;;;;;;;;;;;18.10;37.40;102190.78;10608435;27;1209;-64
2023/01/06 02:39:18;;;;;;;;;;;;;;;18.08;37.32;102183.84;10608150;27;1902;-64
2023/01/06 02:44:18;;;;;;;;;;;;;;;18.10;37.06;102166.88;10633910;27;1306;-65
2023/01/06 02:49:23;;;;;;;;;;;;;;;18.12;37.15;102164.97;10626518;28;855;-65
2023/01/06 02:54:33;;;;;;;;;;;;;;;18.11;37.05;102165.91;10626766;27;1171;-59
2023/01/06 02:59:35;;;;;;;;;;;;;;;18.12;37.07;102170.28;10626597;28;1965;-60
2023/01/06 03:04:36;;;;;;;;;;;;;;;18.13;36.83;102176.47;10608209;27;1281;-59
2023/01/06 03:09:37;;;;;;;;;;;;;;;18.16;37.09;102172.78;10607999;28;1014;-59
2023/01/06 03:14:38;;;;;;;;;;;;;;;18.14;37.08;102178.19;10626304;27;1909;-64
2023/01/06 03:19:38;;;;;;;;;;;;;;;18.12;37.14;102177.41;10607375;28;1015;-59
2023/01/06 03:24:38;;;;;;;;;;;;;;;18.12;37.04;102175.59;10625647;27;1180;-63
2023/01/06 03:29:39;;;;;;;;;;;;;;;18.16;36.87;102178.91;10625529;28;887;-60
2023/01/06 03:34:42;;;;;;;;;;;;;;;18.23;36.40;102166.13;10627745;27;1961;-62
2023/01/06 03:39:42;;;;;;;;;;;;;;;18.20;36.73;102153.00;10634519;27;800;-61
2023/01/06 03:45:18;;;;;;;;;;;;;;;18.25;36.56;102158.88;10633731;27;1281;-58
2023/01/06 03:50:19;;;;;;;;;;;;;;;18.19;36.63;102149.50;10507805;27;1281;-63
2023/01/06 03:55:19;;;;;;;;;;;;;;;18.25;36.45;102150.91;10615014;27;1910;-65
2023/01/06 04:00:21;;;;;;;;;;;;;;;18.23;36.38;102144.84;10613941;27;989;-64
2023/01/06 04:05:22;;;;;;;;;;;;;;;18.19;36.55;102141.50;10615152;27;1227;-65
2023/01/06 04:10:22;;;;;;;;;;;;;;;18.19;36.74;102127.38;10613958;27;914;-64
2023/01/06 04:15:23;;;;;;;;;;;;;;;18.20;36.55;102118.44;10631882;27;1991;-64
2023/01/06 04:20:24;;;;;;;;;;;;;;;18.19;36.54;102122.03;10631827;27;1053;-62
2023/01/06 04:25:24;;;;;;;;;;;;;;;18.22;36.42;102122.72;10632035;27;1202;-63
2023/01/06 04:30:25;;;;;;;;;;;;;;;18.22;36.53;102117.41;10632524;27;1058;-63
2023/01/06 04:35:25;;;;;;;;;;;;;;;18.29;36.21;102107.22;10630902;27;2038;-65
2023/01/06 04:40:25;;;;;;;;;;;;;;;18.32;36.36;102115.00;10632102;27;880;-64
2023/01/06 04:45:25;;;;;;;;;;;;;;;18.37;36.17;102115.56;10630715;27;1270;-64
2023/01/06 04:50:25;;;;;;;;;;;;;;;18.33;36.66;102114.03;10630763;27;955;-64
2023/01/06 04:55:26;;;;;;;;;;;;;;;18.33;36.69;102120.22;10630437;27;1902;-62
2023/01/06 05:00:26;;;;;;;;;;;;;;;18.40;36.49;102118.88;10630908;27;804;-63
2023/01/06 05:05:26;;;;;;;;;;;;;;;18.40;36.63;102110.88;10630055;27;1176;-63
2023/01/06 05:10:26;;;;;;;;;;;;;;;18.39;36.40;102113.63;10629801;27;998;-62
2023/01/06 05:15:26;;;;;;;;;;;;;;;18.38;36.37;102106.63;10629473;27;1969;-59
2023/01/06 05:20:27;;;;;;;;;;;;;;;18.37;36.30;102099.63;10629838;27;935;-59
2023/01/06 05:25:27;;;;;;;;;;;;;;;18.27;36.38;102083.38;10630277;27;1193;-62
2023/01/06 05:30:27;;;;;;;;;;;;;;;18.29;36.42;102088.63;10629006;27;891;-61
2023/01/06 05:35:27;;;;;;;;;;;;;;;18.31;36.16;102079.56;10636564;27;1965;-60
2023/01/06 05:40:28;;;;;;;;;;;;;;;18.32;36.27;102067.13;10593940;27;1667;-64
2023/01/06 05:45:28;;;;;;;;;;;;;;;18.28;36.34;102071.81;10628426;27;1167;-59
2023/01/06 05:50:28;;;;;;;;;;;;;;;18.24;36.51;102070.28;10628762;27;1001;-62
2023/01/06 05:55:28;;;;;;;;;;;;;;;18.24;36.74;102059.63;10628470;27;1969;-59
2023/01/06 06:00:29;;;;;;;;;;;;;;;18.21;36.46;102053.69;10627022;27;875;-61
2023/01/06 06:05:29;;;;;;;;;;;;;;;18.23;36.45;102062.44;10628563;27;1183;-58
2023/01/06 06:10:29;;;;;;;;;;;;;;;18.34;36.37;102058.09;10628084;27;872;-58
2023/01/06 06:15:29;;;;;;;;;;;;;;;18.37;36.23;102062.38;10627077;27;1905;-59
2023/01/06 06:20:30;;;;;;;;;;;;;;;18.38;36.06;102064.94;10626931;27;912;-59
2023/01/06 06:25:30;;;;;;;;;;;;;;;18.39;36.04;102050.66;10627349;27;1277;-59
2023/01/06 06:30:31;;;;;;;;;;;;;;;18.31;37.11;102045.00;10608627;27;826;-58
2023/01/06 06:35:31;;;;;;;;;;;;;;;18.26;36.89;102039.13;10626632;27;1969;-60
2023/01/06 06:40:31;;;;;;;;;;;;;;;18.32;36.32;102044.03;10626560;27;932;-61
2023/01/06 06:45:31;;;;;;;;;;;;;;;18.34;36.49;102036.84;10626635;27;1187;-59
2023/01/06 06:50:31;;;;;;;;;;;;;;;18.37;36.52;102035.78;10626956;27;884;-58
2023/01/06 06:55:32;;;;;;;;;;;;;;;18.48;36.19;102035.91;10626856;27;1969;-59
2023/01/06 07:00:32;;;;;;;;;;;;;;;18.52;36.37;102032.13;10626159;28;1014;-58
2023/01/06 07:05:32;;;;;;;;;;;;;;;18.56;36.08;102038.97;10626308;27;1196;-62
2023/01/06 07:10:33;;;;;;;;;;;;;;;18.60;35.91;102029.00;10614149;27;793;-63
2023/01/06 07:15:33;;;;;;;;;;;;;;;18.61;35.79;102015.59;10635389;27;1902;-58
2023/01/06 07:20:34;;;;;;;;;;;;;;;18.61;35.67;102001.44;10616139;27;907;-59
2023/01/06 07:25:34;;;;;;;;;;;;;;;18.57;35.91;101995.44;10634077;27;1188;-62
2023/01/06 07:30:34;;;;;;;;;;;;;;;18.56;36.27;101992.84;10634021;27;920;-60
2023/01/06 07:35:35;;;;;;;;;;;;;;;18.56;36.11;101995.50;10633382;27;1909;-59
2023/01/06 07:40:35;;;;;;;;;;;;;;;18.61;36.23;101990.78;10634406;27;931;-58
2023/01/06 07:45:35;;;;;;;;;;;;;;;18.64;36.29;101986.09;10633816;27;1285;-60
2023/01/06 07:50:35;;;;;;;;;;;;;;;18.62;36.50;101974.69;10633895;27;863;-57
2023/01/06 07:55:36;;;;;;;;;;;;;;;18.64;36.44;101972.78;10614400;27;1894;-58
2023/01/06 08:00:36;;;;;;;;;;;;;;;18.64;36.47;101969.28;10632750;27;944;-58
2023/01/06 08:05:37;;;;;;;;;;;;;;;18.64;36.27;101970.13;10614244;27;1202;-57
2023/01/06 08:10:38;;;;;;;;;;;;;;;18.69;36.13;101960.03;10633329;27;784;-58
2023/01/06 08:15:38;;;;;;;;;;;;;;;18.61;36.74;101967.69;10631987;27;1955;-61
2023/01/06 08:20:38;;;;;;;;;;;;;;;18.52;37.36;101965.63;10641751;27;843;-67
2023/01/06 08:25:38;;;;;;;;;;;;;;;18.50;37.45;101967.53;10632595;27;1184;-59
2023/01/06 08:30:40;;;;;;;;;;;;;;;18.55;36.89;101968.06;10596693;27;1380;-58
2023/01/06 08:35:42;;;;;;;;;;;;;;;18.49;36.62;101955.19;10630820;27;1976;-60
2023/01/06 08:40:43;;;;;;;;;;;;;;;18.52;36.77;101953.19;10612654;27;1173;-60
2023/01/06 08:45:43;;;;;;;;;;;;;;;18.50;36.90;101949.75;10631447;27;1279;-59
2023/01/06 08:50:43;;;;;;;;;;;;;;;18.52;36.74;101952.31;10630736;27;939;-61
2023/01/06 08:55:43;;;;;;;;;;;;;;;18.55;36.51;101949.44;10630377;27;1890;-59
2023/01/06 09:00:44;;;;;;;;;;;;;;;18.54;36.31;101947.72;10630936;27;1012;-58
2023/01/06 09:05:50;;;;;;;;;;;;;;;18.57;36.35;101934.25;10630660;27;1286;-58
2023/01/06 09:10:50;;;;;;;;;;;;;;;18.75;37.60;101937.50;10630472;27;1018;-57
2023/01/06 09:15:51;;;;;;;;;;;;;;;18.85;37.44;101939.41;10631510;27;1983;-61
2023/01/06 09:20:52;;;;;;;;;;;;;;;18.99;36.42;101941.13;10631895;27;869;-58
2023/01/06 09:25:53;;;;;;;;;;;;;;;19.23;42.48;101942.03;10630086;27;1178;-60
2023/01/06 09:30:53;;;;;;;;;;;;;;;19.42;40.58;101936.28;10630626;27;917;-58
2023/01/06 09:35:53;;;;;;;;;;;;;;;19.36;40.29;101926.06;10628699;27;1910;-62
2023/01/06 09:41:03;;;;;;;;;;;;;;;19.38;40.50;101929.44;10629360;27;935;-62
2023/01/06 09:46:03;;;;;;;;;;;;;;;19.31;39.54;101933.50;10610093;27;1285;-58
2023/01/06 09:51:04;;;;;;;;;;;;;;;19.21;40.00;101927.16;10610564;27;944;-58
2023/01/06 09:56:05;;;;;;;;;;;;;;;19.13;40.25;101917.06;10609700;27;1905;-55
2023/01/06 10:01:06;;;;;;;;;;;;;;;19.07;39.70;101911.31;10610810;27;967;-57
2023/01/06 10:06:25;;;;;;;;;;;;;;;19.07;39.65;101913.97;10627926;27;1259;-59
2023/01/06 10:11:35;;;;;;;;;;;;;;;19.03;39.48;101909.81;10628147;27;816;-64
2023/01/06 10:16:35;;;;;;;;;;;;;;;19.03;39.59;101904.47;10629082;27;1897;-57
2023/01/06 10:21:44;;;;;;;;;;;;;;;19.02;39.86;101900.97;10627267;27;991;-59
2023/01/06 10:26:48;;;;;;;;;;;;;;;19.03;38.69;101889.34;10608540;27;2691;-60
2023/01/06 10:31:51;;;;;;;;;;;;;;;18.90;37.67;101883.19;10627446;27;827;-59
2023/01/06 10:36:55;;;;;;;;;;;;;;;19.01;38.17;101869.13;10626368;27;1901;-59
2023/01/06 10:47:33;;;;;;;;;;;;;;;18.93;38.16;101852.84;10626524;27;681;-56
2023/01/06 10:52:33;;;;;;;;;;;;;;;18.85;38.07;101846.25;10627336;27;1168;-57
2023/01/06 10:57:37;;;;;;;;;;;;;;;18.83;38.17;101844.69;10626361;28;1965;-60
2023/01/06 11:03:00;;;;;;;;;;;;;;;18.87;38.53;101831.03;10610082;27;1196;-61
2023/01/06 11:08:00;;;;;;;;;;;;;;;18.81;39.11;101827.97;10629498;28;2211;-57
2023/01/06 11:13:01;;;;;;;;;;;;;;;18.81;39.05;101815.50;10607463;27;1180;-56
2023/01/06 11:18:02;;;;;;;;;;;;;;;18.82;39.27;101808.38;10608360;28;1886;-61
2023/01/06 11:23:11;;;;;;;;;;;;;;;18.83;39.19;101808.28;10625781;27;1350;-58
2023/01/06 11:28:12;;;;;;;;;;;;;;;18.82;39.26;101797.72;10626490;28;974;-58
2023/01/06 11:33:19;;;;;;;;;;;;;;;18.85;39.55;101786.84;10625619;27;1179;-59
2023/01/06 11:38:19;;;;;;;;;;;;;;;18.92;39.45;101782.78;10607120;28;1906;-61
2023/01/06 11:43:24;;;;;;;;;;;;;;;19.14;38.33;101777.66;10609606;27;1196;-58
2023/01/06 11:48:32;;;;;;;;;;;;;;;19.07;38.99;101773.69;10614916;28;1027;-60
2023/01/06 11:53:33;;;;;;;;;;;;;;;19.05;39.13;101762.34;10618006;27;1294;-63
2023/01/06 11:58:36;;;;;;;;;;;;;;;19.07;39.19;101759.56;10626805;27;1906;-58
2023/01/06 12:03:40;;;;;;;;;;;;;;;18.99;39.79;101748.63;10640403;27;1180;-60
2023/01/06 12:08:40;;;;;;;;;;;;;;;19.07;40.28;101748.91;10637534;27;969;-58
2023/01/06 12:13:40;;;;;;;;;;;;;;;18.95;43.97;101749.78;10637122;27;1386;-59
2023/01/06 12:18:40;;;;;;;;;;;;;;;18.90;43.63;101731.50;10615021;27;1964;-57
2023/01/06 12:23:41;;;;;;;;;;;;;;;18.90;40.23;101736.81;10633218;27;1310;-56
2023/01/06 12:28:42;;;;;;;;;;;;;;;18.81;40.94;101729.50;10613499;27;901;-57
2023/01/06 12:33:45;;;;;;;;;;;;;;;18.77;40.55;101712.88;10631070;27;1177;-57
2023/01/06 12:38:49;;;;;;;;;;;;;;;18.70;40.51;101716.94;10631749;27;1980;-57
2023/01/06 12:43:52;;;;;;;;;;;;;;;18.78;39.97;101706.63;10613466;27;1202;-57
2023/01/06 12:49:00;;;;;;;;;;;;;;;18.72;39.42;101700.88;10613141;27;793;-59
2023/01/06 12:54:10;;;;;;;;;;;;;;;18.83;40.04;101699.16;10610171;27;1192;-58
2023/01/06 12:59:14;;;;;;;;;;;;;;;18.80;41.84;101683.41;10629844;27;1905;-58
2023/01/06 13:04:14;;;;;;;;;;;;;;;18.77;39.63;101678.31;10630427;27;1180;-56
2023/01/06 13:09:21;;;;;;;;;;;;;;;18.72;39.32;101659.16;10630179;27;1014;-57
2023/01/06 13:14:36;;;;;;;;;;;;;;;18.70;39.40;101658.44;10629786;27;1286;-57
2023/01/06 13:19:39;;;;;;;;;;;;;;;18.99;41.69;101644.81;10629382;27;1905;-58
2023/01/06 13:24:48;;;;;;;;;;;;;;;18.94;41.97;101623.00;10629944;27;1207;-55
2023/01/06 13:30:12;;;;;;;;;;;;;;;19.09;41.17;101625.34;10612012;27;1008;-57
2023/01/06 13:35:19;;;;;;;;;;;;;;;18.95;41.39;101609.56;10583566;27;1909;-58
2023/01/06 13:40:20;;;;;;;;;;;;;;;19.04;41.98;101597.41;10600333;27;1211;-55
2023/01/06 13:45:21;;;;;;;;;;;;;;;19.33;44.44;101596.03;10629097;27;1287;-57
2023/01/06 13:50:22;;;;;;;;;;;;;;;19.27;44.01;101591.19;10628217;27;1082;-57
2023/01/06 13:55:22;;;;;;;;;;;;;;;18.86;41.09;101587.16;10627664;27;1909;-55
2023/01/06 14:00:26;;;;;;;;;;;;;;;19.04;42.32;101568.13;10628784;27;1071;-57
2023/01/06 14:05:29;;;;;;;;;;;;;;;19.22;42.31;101564.88;10609868;27;1258;-59
2023/01/06 14:10:36;;;;;;;;;;;;;;;19.24;41.67;101560.28;10627813;27;861;-58
2023/01/06 14:15:54;;;;;;;;;;;;;;;19.27;40.27;101562.75;10626459;27;1976;-56
2023/01/06 14:21:14;;;;;;;;;;;;;;;18.60;40.88;101488.97;10625503;27;820;-55
2023/01/06 14:26:14;;;;;;;;;;;;;;;19.11;40.62;101554.22;10609076;27;1232;-56
2023/01/06 14:31:37;;;;;;;;;;;;;;;19.16;40.15;101564.50;10626638;27;876;-56
2023/01/06 14:36:38;;;;;;;;;;;;;;;19.21;39.75;101563.22;10612655;27;1970;-59
2023/01/06 14:41:40;;;;;;;;;;;;;;;19.23;39.78;101563.06;10607243;27;908;-55
2023/01/06 14:46:43;;;;;;;;;;;;;;;19.08;40.58;101564.25;10627239;27;1381;-54
2023/01/06 14:51:44;;;;;;;;;;;;;;;18.98;39.89;101571.25;10626127;27;918;-57
2023/01/06 14:56:50;;;;;;;;;;;;;;;18.93;39.85;101576.03;10626390;27;1910;-56
2023/01/06 15:02:20;;;;;;;;;;;;;;;18.98;39.39;101572.09;10626180;28;1034;-57
2023/01/06 15:07:20;;;;;;;;;;;;;;;19.03;39.55;101574.41;10604407;28;1711;-56
2023/01/06 15:12:23;;;;;;;;;;;;;;;18.99;39.77;101596.91;10626030;28;837;-56
2023/01/06 15:17:24;;;;;;;;;;;;;;;19.03;39.52;101598.34;10626397;28;1957;-55
2023/01/06 15:22:24;;;;;;;;;;;;;;;19.04;39.34;101610.69;10607850;27;1314;-56
2023/01/06 15:27:24;;;;;;;;;;;;;;;19.04;39.79;101608.91;10625731;28;936;-56
2023/01/06 15:32:25;;;;;;;;;;;;;;;19.06;39.03;101606.97;10632567;27;1279;-57
2023/01/06 15:37:26;;;;;;;;;;;;;;;18.98;39.80;101608.50;10615218;27;1910;-57
2023/01/06 15:42:26;;;;;;;;;;;;;;;19.01;39.87;101611.78;10634007;27;1187;-55
2023/01/06 15:47:37;;;;;;;;;;;;;;;19.02;39.41;101601.97;10633056;27;1028;-57
2023/01/06 15:52:38;;;;;;;;;;;;;;;19.06;39.51;101604.31;10633009;27;1183;-55
2023/01/06 15:57:38;;;;;;;;;;;;;;;19.00;39.78;101590.59;10614964;27;1966;-55
2023/01/06 16:02:39;;;;;;;;;;;;;;;19.00;39.98;101593.25;10634255;27;1201;-55
2023/01/06 16:07:39;;;;;;;;;;;;;;;18.93;40.11;101586.69;10615551;27;868;-55
2023/01/06 16:12:40;;;;;;;;;;;;;;;18.99;40.02;101591.56;10637561;27;1176;-65
2023/01/06 16:17:43;;;;;;;;;;;;;;;19.09;39.87;101584.56;10636447;27;1901;-54
2023/01/06 16:22:47;;;;;;;;;;;;;;;19.11;39.11;101570.19;10613933;27;1304;-54
2023/01/06 16:27:47;;;;;;;;;;;;;;;19.01;39.44;101566.53;10631626;27;1072;-54
2023/01/06 16:32:48;;;;;;;;;;;;;;;19.02;39.47;101564.72;10631338;27;1190;-54
2023/01/06 16:37:48;;;;;;;;;;;;;;;19.09;39.64;101558.81;10633183;27;1964;-54
2023/01/06 16:42:48;;;;;;;;;;;;;;;19.07;39.57;101555.41;10612389;27;1227;-54
2023/01/06 16:47:49;;;;;;;;;;;;;;;19.12;39.70;101547.09;10631771;27;836;-54
2023/01/06 16:52:50;;;;;;;;;;;;;;;19.17;39.62;101543.09;10631318;27;1203;-54
2023/01/06 16:57:50;;;;;;;;;;;;;;;19.15;39.71;101541.50;10612017;27;1894;-54
2023/01/06 17:02:51;;;;;;;;;;;;;;;19.20;40.02;101544.69;10631174;27;1303;-54
2023/01/06 17:07:52;;;;;;;;;;;;;;;19.17;39.28;101543.09;10630690;27;986;-54
2023/01/06 17:18:18;;;;;;;;;;;;;;;19.17;39.16;101534.25;10629503;27;1960;-54
2023/01/06 17:23:19;;;;;;;;;;;;;;;19.13;39.13;101536.31;10629351;27;1259;-54
2023/01/06 17:28:20;;;;;;;;;;;;;;;19.15;39.40;101530.84;10630555;27;793;-54
2023/01/06 17:33:20;;;;;;;;;;;;;;;19.11;39.24;101524.09;10629520;27;1278;-54
2023/01/06 17:38:21;;;;;;;;;;;;;;;19.13;38.88;101514.19;10628813;27;1980;-54
2023/01/06 17:43:29;;;;;;;;;;;;;;;19.10;39.06;101509.06;10628193;27;1223;-53
2023/01/06 17:48:29;;;;;;;;;;;;;;;19.14;38.94;101507.88;10629013;27;816;-54
2023/01/06 17:58:49;;;;;;;;;;;;;;;19.13;39.00;101503.53;10628561;27;1912;-54
2023/01/06 18:03:49;;;;;;;;;;;;;;;19.11;38.78;101505.44;10628476;27;1243;-54
2023/01/06 18:08:50;;;;;;;;;;;;;;;19.14;38.70;101505.22;10628092;27;903;-54
2023/01/06 18:13:50;;;;;;;;;;;;;;;19.14;38.61;101494.59;10610706;27;1222;-54
2023/01/06 18:18:50;;;;;;;;;;;;;;;19.13;38.63;101487.56;10627318;27;1882;-54
2023/01/06 18:23:51;;;;;;;;;;;;;;;19.09;38.42;101483.41;10609412;27;1184;-54
2023/01/06 18:28:55;;;;;;;;;;;;;;;19.19;38.42;101482.59;10627825;27;932;-54
2023/01/06 18:33:55;;;;;;;;;;;;;;;19.42;37.36;101474.63;10626551;27;1262;-54
2023/01/06 18:38:57;;;;;;;;;;;;;;;19.77;36.16;101469.19;10628670;27;1906;-51
2023/01/06 18:43:57;;;;;;;;;;;;;;;19.74;36.69;101470.28;10627161;27;1169;-57
2023/01/06 18:48:58;;;;;;;;;;;;;;;19.58;37.47;101467.16;10633065;27;760;-59
2023/01/06 18:53:58;;;;;;;;;;;;;;;19.88;37.62;101458.50;10612904;27;1291;-56
2023/01/06 18:58:58;;;;;;;;;;;;;;;20.10;37.38;101458.47;10626321;28;1897;-57
2023/01/06 19:04:18;;;;;;;;;;;;;;;20.37;35.88;101455.34;10609127;27;1271;-57
2023/01/06 19:09:18;;;;;;;;;;;;;;;19.97;36.56;101452.44;10634987;27;864;-57
2023/01/06 19:14:18;;;;;;;;;;;;;;;19.72;37.37;101448.25;10634620;27;1160;-59
2023/01/06 19:19:26;;;;;;;;;;;;;;;19.56;38.03;101448.63;10634419;27;1893;-59
2023/01/06 19:24:27;;;;;;;;;;;;;;;19.44;38.55;101448.72;10616621;27;1230;-59
2023/01/06 19:29:28;;;;;;;;;;;;;;;19.35;38.72;101454.78;10634088;27;853;-59
2023/01/06 19:34:29;;;;;;;;;;;;;;;19.28;38.86;101460.59;10633655;27;1156;-59
2023/01/06 19:39:32;;;;;;;;;;;;;;;19.27;39.88;101463.38;10634329;27;1910;-57
2023/01/06 19:44:33;;;;;;;;;;;;;;;19.26;40.33;101461.66;10634012;27;1286;-59
2023/01/06 19:49:37;;;;;;;;;;;;;;;19.17;40.31;101459.72;10615679;27;1088;-56
2023/01/06 19:54:38;;;;;;;;;;;;;;;19.20;40.85;101457.69;10632966;27;1372;-59
2023/01/06 19:59:38;;;;;;;;;;;;;;;19.37;41.09;101464.34;10598892;27;1981;-63
2023/01/06 20:04:39;;;;;;;;;;;;;;;19.44;40.66;101467.38;10633307;27;1204;-55
2023/01/06 20:09:40;;;;;;;;;;;;;;;19.27;41.45;101466.03;10632568;27;846;-55
2023/01/06 20:14:40;;;;;;;;;;;;;;;19.22;40.72;101460.22;10631932;27;1180;-55
2023/01/06 20:19:40;;;;;;;;;;;;;;;19.20;40.56;101467.47;10613486;27;1898;-54
2023/01/06 20:24:41;;;;;;;;;;;;;;;19.18;40.49;101458.75;10613551;27;1274;-56
2023/01/06 20:29:42;;;;;;;;;;;;;;;19.14;40.55;101470.63;10614695;27;958;-56
2023/01/06 20:34:42;;;;;;;;;;;;;;;18.92;39.66;101463.41;10631373;27;1212;-61
2023/01/06 20:39:42;;;;;;;;;;;;;;;18.89;39.68;101453.88;10631980;27;1906;-59
2023/01/06 20:44:42;;;;;;;;;;;;;;;18.81;40.16;101458.94;10631053;27;1192;-62
2023/01/06 20:49:43;;;;;;;;;;;;;;;18.80;40.22;101451.06;10631762;27;793;-59
2023/01/06 20:54:43;;;;;;;;;;;;;;;18.80;40.13;101449.25;10631483;27;1200;-56
2023/01/06 20:59:43;;;;;;;;;;;;;;;18.76;40.08;101447.81;10631339;27;1897;-58
2023/01/06 21:04:43;;;;;;;;;;;;;;;18.72;40.02;101446.31;10630856;27;1202;-55
2023/01/06 21:09:43;;;;;;;;;;;;;;;18.72;40.01;101437.50;10630928;27;863;-57
2023/01/06 21:14:44;;;;;;;;;;;;;;;18.74;39.54;101436.44;10630691;27;1212;-57
2023/01/06 21:19:44;;;;;;;;;;;;;;;18.67;39.73;101424.56;10629743;27;1968;-60
2023/01/06 21:24:44;;;;;;;;;;;;;;;18.63;39.61;101424.88;10630348;27;1216;-55
2023/01/06 21:29:44;;;;;;;;;;;;;;;18.69;39.59;101427.09;10636850;27;856;-61
2023/01/06 21:34:45;;;;;;;;;;;;;;;18.68;39.35;101414.78;10613136;27;1184;-59
2023/01/06 21:39:45;;;;;;;;;;;;;;;18.64;39.21;101424.78;10629772;27;1971;-56
2023/01/06 21:44:45;;;;;;;;;;;;;;;18.66;39.05;101414.88;10629139;27;1247;-57
2023/01/06 21:49:45;;;;;;;;;;;;;;;18.80;38.07;101412.00;10629433;27;824;-57
2023/01/06 21:54:45;;;;;;;;;;;;;;;18.86;38.11;101405.34;10628943;27;1270;-57
2023/01/06 21:59:46;;;;;;;;;;;;;;;18.86;37.90;101400.03;10610098;27;1906;-58
2023/01/06 22:04:46;;;;;;;;;;;;;;;18.74;38.41;101403.66;10628414;27;1251;-61
2023/01/06 22:09:46;;;;;;;;;;;;;;;18.75;38.29;101410.66;10627663;27;939;-63
2023/01/06 22:14:47;;;;;;;;;;;;;;;18.70;38.14;101424.31;10609949;27;1200;-58
2023/01/06 22:19:47;;;;;;;;;;;;;;;18.55;38.54;101417.47;10610292;27;1910;-61
2023/01/06 22:24:48;;;;;;;;;;;;;;;18.48;38.75;101418.88;10608879;27;1266;-59
2023/01/06 22:29:48;;;;;;;;;;;;;;;18.39;38.61;101400.97;10609566;27;807;-58
2023/01/06 22:34:49;;;;;;;;;;;;;;;18.34;38.53;101408.44;10626892;27;1324;-62
2023/01/06 22:39:49;;;;;;;;;;;;;;;18.27;38.80;101396.59;10626175;27;1917;-56
2023/01/06 22:44:49;;;;;;;;;;;;;;;18.17;38.80;101401.72;10627194;27;1267;-62
2023/01/06 22:49:49;;;;;;;;;;;;;;;18.08;38.65;101389.97;10627184;27;856;-56
2023/01/06 22:54:50;;;;;;;;;;;;;;;17.98;38.97;101390.78;10626945;27;1176;-67
2023/01/06 22:59:50;;;;;;;;;;;;;;;17.96;38.69;101376.75;10626738;28;1909;-60
2023/01/06 23:04:50;;;;;;;;;;;;;;;17.97;38.70;101383.78;10627432;27;1273;-64
2023/01/06 23:09:50;;;;;;;;;;;;;;;17.99;38.83;101376.53;10626400;28;859;-60
2023/01/06 23:14:50;;;;;;;;;;;;;;;17.99;38.55;101372.06;10626380;27;1179;-59
2023/01/06 23:19:51;;;;;;;;;;;;;;;17.99;38.45;101374.72;10626459;28;1968;-61
2023/01/06 23:24:51;;;;;;;;;;;;;;;17.98;38.29;101365.06;10626390;27;1287;-57
2023/01/06 23:29:51;;;;;;;;;;;;;;;17.96;38.26;101356.34;10626485;28;899;-61
2023/01/06 23:34:51;;;;;;;;;;;;;;;17.95;38.52;101365.28;10625875;27;1285;-57
2023/01/06 23:39:52;;;;;;;;;;;;;;;17.91;38.46;101357.66;10626416;28;1972;-59
2023/01/06 23:44:52;;;;;;;;;;;;;;;17.90;38.45;101358.63;10626440;27;1266;-66
2023/01/06 23:49:52;;;;;;;;;;;;;;;17.93;38.64;101355.72;10627764;27;851;-57
2023/01/06 23:54:52;;;;;;;;;;;;;;;17.94;38.76;101355.59;10635203;27;1167;-58
2023/01/06 23:59:53;;;;;;;;;;;;;;;18.00;38.44;101359.63;10634900;27;1909;-57
